Погода Лекнесна неделю

Нурланн, Норвегия

14 - 20 июля
  • 14июля
    Сегодня
    +13°
    +17°
    Ясно и безоблачно
    ВремяПогодаТемператураВлажностьДавлениеВетер, м/сВероятность осадков
    02:00Ясно и безоблачно+12°C95 %758 мм2.1 м/с2 %
    05:00Ясно и безоблачно+12°C93 %758 мм1.8 м/с2 %
    08:00Ясно и безоблачно+14°C84 %757 мм1.8 м/с2 %
    11:00Ясно и безоблачно+16°C82 %757 мм3.3 м/с2 %
    14:00Ясно и безоблачно+17°C80 %757 мм3.5 м/с2 %
    17:00Ясно и безоблачно+17°C80 %757 мм3.1 м/с2 %
    20:00Ясно и безоблачно+15°C82 %757 мм3.9 м/с2 %
    23:00Ясно и безоблачно+14°C90 %756 мм4.4 м/с2 %
  • 15июля
    Понедельник
    +13°
    +22°
    Ясно и безоблачно
    ВремяПогодаТемператураВлажностьДавлениеВетер, м/сВероятность осадков
    02:00Ясно и безоблачно+14°C95 %756 мм4.1 м/с2 %
    05:00Ясно и безоблачно+14°C91 %756 мм4.6 м/с2 %
    08:00Ясно и безоблачно+17°C84 %755 мм3.6 м/с2 %
    11:00Ясно и безоблачно+18°C80 %755 мм4.3 м/с2 %
    14:00Ясно и безоблачно+20°C77 %755 мм4.2 м/с2 %
    17:00Ясно и безоблачно+20°C78 %754 мм2.7 м/с2 %
    20:00Ясно и безоблачно+18°C82 %754 мм4.1 м/с2 %
    23:00Ясно и безоблачно+16°C88 %754 мм5.1 м/с2 %
  • 16июля
    Вторник
    +12°
    +21°
    Практически безоблачно
    ВремяПогодаТемператураВлажностьДавлениеВетер, м/сВероятность осадков
    02:00Ясно и безоблачно+14°C91 %754 мм3.8 м/с2 %
    05:00Ясно и безоблачно+14°C90 %754 мм3.0 м/с2 %
    08:00Ясно и безоблачно+17°C81 %754 мм2.7 м/с2 %
    11:00Небольшая облачность+19°C72 %755 мм3.0 м/с3 %
    14:00Практически безоблачно+21°C75 %755 мм2.7 м/с4 %
    17:00Небольшая облачность+19°C80 %756 мм1.2 м/с4 %
    20:00Небольшая облачность+17°C81 %756 мм2.3 м/с3 %
    23:00Облачно с прояснениями+14°C99 %756 мм0.9 м/с4 %
  • 17июля
    Среда
    +14°
    +22°
    Ясно и безоблачно
    ВремяПогодаТемператураВлажностьДавлениеВетер, м/сВероятность осадков
    02:00Пасмурно, сплошная облачность+13°C99 %756 мм1.1 м/с2 %
    05:00Небольшая облачность+14°C94 %756 мм2.0 м/с3 %
    08:00Ясно и безоблачно+17°C80 %756 мм2.5 м/с2 %
    11:00Ясно и безоблачно+20°C76 %756 мм3.5 м/с2 %
    14:00Ясно и безоблачно+21°C72 %756 мм3.0 м/с2 %
    17:00Ясно и безоблачно+21°C69 %755 мм2.4 м/с3 %
    20:00Ясно и безоблачно+18°C78 %755 мм3.5 м/с2 %
    23:00Ясно и безоблачно+17°C94 %755 мм3.1 м/с2 %
Мы используем cookies
Соглашаюсь